createdAt,value
2022-10-22T00:01:47.668Z,5.38
2022-10-22T00:04:17.409Z,5.68
2022-10-22T00:06:49.725Z,5.47
2022-10-22T00:09:19.488Z,5.85
2022-10-22T00:11:49.283Z,6.05
2022-10-22T00:14:19.157Z,5.28
2022-10-22T00:16:48.862Z,5.50
2022-10-22T00:19:18.559Z,5.30
2022-10-22T00:21:50.877Z,5.72
2022-10-22T00:24:20.557Z,5.20
2022-10-22T00:26:50.365Z,5.20
2022-10-22T00:29:21.115Z,5.53
2022-10-22T00:31:52.533Z,4.82
2022-10-22T00:34:23.723Z,5.38
2022-10-22T00:36:56.323Z,5.47
2022-10-22T00:39:28.188Z,5.25
2022-10-22T00:41:59.541Z,4.63
2022-10-22T00:45:04.892Z,5.10
2022-10-22T00:47:36.387Z,4.55
2022-10-22T00:50:08.831Z,5.57
2022-10-22T00:52:42.381Z,4.93
2022-10-22T00:55:13.150Z,5.20
2022-10-22T00:57:43.485Z,5.38
2022-10-22T01:00:14.625Z,4.63
2022-10-22T01:02:44.390Z,4.53
2022-10-22T01:05:14.744Z,5.00
2022-10-22T01:07:50.341Z,5.20
2022-10-22T01:10:44.732Z,5.00
2022-10-22T01:13:24.955Z,6.07
2022-10-22T01:16:02.496Z,5.05
2022-10-22T01:18:39.577Z,5.57
2022-10-22T01:21:21.036Z,5.13
2022-10-22T01:24:16.101Z,4.53
2022-10-22T01:27:03.457Z,4.90
2022-10-22T01:29:40.639Z,4.95
2022-10-22T01:32:15.559Z,5.05
2022-10-22T01:34:49.933Z,4.93
2022-10-22T01:37:23.544Z,4.70
2022-10-22T01:39:54.801Z,4.50
2022-10-22T01:42:24.493Z,5.00
2022-10-22T01:44:56.873Z,5.03
2022-10-22T01:47:40.609Z,5.00
2022-10-22T01:50:46.089Z,5.18
2022-10-22T01:53:27.074Z,4.90
2022-10-22T01:56:12.524Z,5.27
2022-10-22T01:58:48.055Z,4.77
2022-10-22T02:01:29.560Z,5.25
2022-10-22T02:04:08.106Z,4.93
2022-10-22T02:06:41.604Z,4.78
2022-10-22T02:09:12.787Z,4.90
2022-10-22T02:11:43.332Z,4.55
2022-10-22T02:14:14.854Z,4.75
2022-10-22T02:16:50.348Z,4.43
2022-10-22T02:19:27.384Z,4.13
2022-10-22T02:21:57.929Z,4.25
2022-10-22T02:24:28.497Z,4.30
2022-10-22T02:27:07.351Z,4.63
2022-10-22T02:29:42.064Z,4.70
2022-10-22T02:32:21.073Z,5.30
2022-10-22T02:34:52.461Z,4.97
2022-10-22T02:37:23.785Z,4.72
2022-10-22T02:39:56.388Z,4.82
2022-10-22T02:42:28.141Z,4.38
2022-10-22T02:44:57.835Z,4.57
2022-10-22T02:47:30.245Z,4.20
2022-10-22T02:49:59.928Z,5.10
2022-10-22T02:52:29.618Z,4.80
2022-10-22T02:54:59.337Z,4.93
2022-10-22T02:57:29.128Z,4.63
2022-10-22T02:59:58.841Z,4.43
2022-10-22T03:02:31.170Z,4.03
2022-10-22T03:05:00.952Z,4.13
2022-10-22T03:07:30.621Z,4.20
2022-10-22T03:10:00.315Z,4.57
2022-10-22T03:12:30.047Z,4.47
2022-10-22T03:14:59.740Z,4.50
2022-10-22T03:17:32.078Z,5.00
2022-10-22T03:20:01.745Z,4.70
2022-10-22T03:22:35.107Z,4.05
2022-10-22T03:25:10.716Z,4.13
2022-10-22T03:27:42.876Z,4.28
2022-10-22T03:30:14.240Z,4.00
2022-10-22T03:32:46.568Z,3.50
2022-10-22T03:35:16.263Z,4.07
2022-10-22T03:37:45.986Z,4.13
2022-10-22T03:40:16.973Z,4.25
2022-10-22T03:42:46.802Z,4.30
2022-10-22T03:45:16.615Z,4.18
2022-10-22T03:47:48.884Z,3.92
2022-10-22T03:50:18.908Z,4.25
2022-10-22T03:52:48.596Z,4.50
2022-10-22T03:55:18.299Z,4.03
2022-10-22T03:57:48.013Z,4.30
2022-10-22T04:00:18.285Z,3.70
2022-10-22T04:02:50.572Z,4.05
2022-10-22T04:05:20.483Z,3.78
2022-10-22T04:07:50.165Z,3.78
2022-10-22T04:10:20.023Z,3.77
2022-10-22T04:12:50.401Z,4.38
2022-10-22T04:15:20.517Z,3.92
2022-10-22T04:17:52.862Z,3.67
2022-10-22T04:20:22.625Z,4.22
2022-10-22T04:22:52.308Z,4.10
2022-10-22T04:25:22.029Z,4.20
2022-10-22T04:27:51.705Z,4.10
2022-10-22T04:30:21.645Z,3.90
2022-10-22T04:32:53.950Z,4.27
2022-10-22T04:38:13.306Z,4.28
2022-10-22T04:40:43.000Z,3.95
2022-10-22T04:43:12.713Z,4.20
2022-10-22T04:45:42.401Z,4.10
2022-10-22T04:48:14.695Z,4.20
2022-10-22T04:50:44.439Z,4.00
2022-10-22T04:53:14.145Z,4.10
2022-10-22T04:55:43.825Z,4.35
2022-10-22T04:58:13.519Z,4.70
2022-10-22T05:00:43.247Z,4.57
2022-10-22T05:03:15.578Z,4.50
2022-10-22T05:05:45.262Z,4.50
2022-10-22T05:08:14.950Z,4.82
2022-10-22T05:10:44.622Z,4.53
2022-10-22T05:13:14.299Z,3.95
2022-10-22T05:15:44.007Z,4.10
2022-10-22T05:18:18.993Z,3.80
2022-10-22T05:20:51.549Z,4.75
2022-10-22T05:23:21.240Z,4.22
2022-10-22T05:25:50.912Z,4.43
2022-10-22T05:28:20.591Z,4.68
2022-10-22T05:30:56.856Z,4.50
2022-10-22T05:33:29.532Z,4.07
2022-10-22T05:36:00.114Z,4.43
2022-10-22T05:38:30.213Z,4.72
2022-10-22T05:41:05.652Z,4.28
2022-10-22T05:43:35.874Z,4.20
2022-10-22T05:46:07.148Z,4.60
2022-10-22T05:48:40.174Z,4.40
2022-10-22T05:51:12.308Z,4.78
2022-10-22T05:53:44.656Z,4.13
2022-10-22T05:56:16.461Z,5.05
2022-10-22T05:58:47.463Z,5.10
2022-10-22T06:01:19.873Z,4.80
2022-10-22T06:03:52.844Z,4.75
2022-10-22T06:06:24.488Z,4.77
2022-10-22T06:08:55.369Z,4.70
2022-10-22T06:11:28.845Z,4.83
2022-10-22T06:14:00.891Z,4.53
2022-10-22T06:16:32.173Z,4.47
2022-10-22T06:19:05.366Z,4.93
2022-10-22T06:21:35.833Z,4.67
2022-10-22T06:24:05.592Z,4.65
2022-10-22T06:26:35.451Z,4.20
2022-10-22T06:29:05.712Z,4.72
2022-10-22T06:31:37.070Z,4.50
2022-10-22T06:34:10.983Z,4.47
2022-10-22T06:36:42.842Z,4.40
2022-10-22T06:39:14.614Z,4.68
2022-10-22T06:41:44.756Z,4.82
2022-10-22T06:44:17.369Z,4.63
2022-10-22T06:46:47.269Z,5.20
2022-10-22T06:49:19.607Z,4.97
2022-10-22T06:51:52.603Z,5.30
2022-10-22T06:54:22.538Z,5.00
2022-10-22T06:56:52.800Z,4.97
2022-10-22T06:59:22.514Z,5.40
2022-10-22T07:01:52.367Z,5.18
2022-10-22T07:04:24.741Z,4.88
2022-10-22T07:06:57.378Z,5.30
2022-10-22T07:09:27.115Z,5.55
2022-10-22T07:11:56.825Z,5.30
2022-10-22T07:14:26.585Z,4.80
2022-10-22T07:16:56.257Z,4.72
2022-10-22T07:19:28.573Z,4.90
2022-10-22T07:21:58.309Z,6.35
2022-10-22T07:24:28.188Z,6.60
2022-10-22T07:26:57.898Z,5.97
2022-10-22T07:29:28.546Z,4.70
2022-10-22T07:31:58.217Z,5.40
2022-10-22T07:34:30.586Z,4.78
2022-10-22T07:37:00.402Z,5.47
2022-10-22T07:39:30.431Z,5.10
2022-10-22T07:42:00.138Z,5.18
2022-10-22T07:44:30.079Z,4.90
2022-10-22T07:46:59.758Z,5.05
2022-10-22T07:49:32.071Z,5.07
2022-10-22T07:52:01.781Z,5.13
2022-10-22T07:54:31.647Z,4.88
2022-10-22T07:57:01.489Z,4.65
2022-10-22T07:59:31.154Z,5.60
2022-10-22T08:02:36.495Z,5.00
2022-10-22T08:05:13.731Z,4.78
2022-10-22T08:07:44.025Z,4.95
2022-10-22T08:10:14.894Z,5.00
2022-10-22T08:12:44.871Z,4.88
2022-10-22T08:15:14.713Z,5.28
2022-10-22T08:17:44.644Z,4.85
2022-10-22T08:20:17.475Z,4.80
2022-10-22T08:22:47.596Z,4.53
2022-10-22T08:25:18.400Z,4.65
2022-10-22T08:27:48.363Z,5.05
2022-10-22T08:30:18.598Z,4.38
2022-10-22T08:32:51.611Z,5.03
2022-10-22T08:35:26.365Z,5.05
2022-10-22T08:37:56.064Z,4.18
2022-10-22T08:40:33.680Z,4.53
2022-10-22T08:43:24.346Z,4.10
2022-10-22T08:46:02.734Z,4.47
2022-10-22T08:48:45.834Z,4.97
2022-10-22T08:51:20.997Z,4.30
2022-10-22T08:54:04.166Z,4.10
2022-10-22T08:56:35.685Z,4.03
2022-10-22T08:59:13.457Z,4.50
2022-10-22T09:01:48.481Z,4.40
2022-10-22T09:04:25.622Z,4.20
2022-10-22T09:07:01.324Z,3.80
2022-10-22T09:09:36.790Z,3.88
2022-10-22T09:12:08.774Z,4.25
2022-10-22T09:14:38.549Z,4.55
2022-10-22T09:17:19.212Z,3.92
2022-10-22T09:20:00.769Z,4.88
2022-10-22T09:22:41.523Z,5.00
2022-10-22T09:25:23.316Z,4.97
2022-10-22T09:27:58.440Z,4.07
2022-10-22T09:30:30.584Z,3.88
2022-10-22T09:33:04.695Z,4.10
2022-10-22T09:35:37.670Z,4.25
2022-10-22T09:38:11.912Z,3.83
2022-10-22T09:40:50.883Z,4.20
2022-10-22T09:43:21.136Z,4.15
2022-10-22T09:45:58.105Z,3.92
2022-10-22T09:48:34.570Z,3.63
2022-10-22T09:51:09.600Z,3.15
2022-10-22T09:53:46.157Z,3.85
2022-10-22T09:56:26.790Z,3.92
2022-10-22T09:58:59.482Z,3.75
2022-10-22T10:01:31.605Z,3.35
2022-10-22T10:04:09.854Z,4.10
2022-10-22T10:06:42.049Z,4.43
2022-10-22T10:09:19.917Z,3.90
2022-10-22T10:11:56.065Z,3.17
2022-10-22T10:14:38.166Z,3.60
2022-10-22T10:17:18.430Z,3.80
2022-10-22T10:20:02.906Z,3.30
2022-10-22T10:22:45.890Z,3.80
2022-10-22T10:25:35.394Z,4.07
2022-10-22T10:28:22.717Z,3.78
2022-10-22T10:31:00.134Z,3.55
2022-10-22T10:33:41.201Z,3.72
2022-10-22T10:36:19.585Z,4.15
2022-10-22T10:38:59.786Z,3.70
2022-10-22T10:41:40.641Z,3.70
2022-10-22T10:44:25.653Z,3.88
2022-10-22T10:47:06.965Z,4.22
2022-10-22T10:49:39.013Z,4.57
2022-10-22T10:52:20.566Z,4.55
2022-10-22T10:55:02.250Z,5.45
2022-10-22T10:57:45.618Z,4.95
2022-10-22T11:00:19.996Z,4.55
2022-10-22T11:03:32.376Z,5.05
2022-10-22T11:06:05.158Z,4.70
2022-10-22T11:08:37.798Z,4.15
2022-10-22T11:11:13.259Z,4.53
2022-10-22T11:13:52.113Z,4.35
2022-10-22T11:16:26.301Z,3.67
2022-10-22T11:19:02.615Z,3.20
2022-10-22T11:21:37.128Z,3.58
2022-10-22T11:24:15.805Z,3.40
2022-10-22T11:26:49.641Z,3.38
2022-10-22T11:29:28.263Z,3.80
2022-10-22T11:32:05.311Z,3.40
2022-10-22T11:34:43.603Z,3.60
2022-10-22T11:37:16.093Z,3.72
2022-10-22T11:39:50.389Z,4.40
2022-10-22T11:42:23.842Z,4.57
2022-10-22T11:45:08.633Z,5.22
2022-10-22T11:47:55.106Z,5.32
2022-10-22T11:50:28.069Z,5.38
2022-10-22T11:53:04.771Z,5.30
2022-10-22T11:55:46.126Z,5.57
2022-10-22T11:58:33.665Z,6.03
2022-10-22T12:01:25.732Z,5.55
2022-10-22T12:04:16.908Z,5.70
2022-10-22T12:06:59.988Z,6.05
2022-10-22T12:09:33.652Z,5.13
2022-10-22T12:12:15.608Z,5.85
2022-10-22T12:14:57.279Z,4.93
2022-10-22T12:17:31.633Z,6.00
2022-10-22T12:20:05.165Z,6.05
2022-10-22T12:22:37.793Z,4.90
2022-10-22T12:25:21.620Z,5.57
2022-10-22T12:27:55.149Z,5.03
2022-10-22T12:30:27.220Z,4.40
2022-10-22T12:33:01.560Z,4.35
2022-10-22T12:35:34.039Z,3.55
2022-10-22T12:38:05.946Z,3.20
2022-10-22T12:40:37.738Z,3.25
2022-10-22T12:43:14.949Z,3.72
2022-10-22T12:45:48.274Z,3.70
2022-10-22T12:48:23.600Z,4.15
2022-10-22T12:50:56.258Z,4.18
2022-10-22T12:53:30.021Z,4.65
2022-10-22T12:56:04.424Z,4.75
2022-10-22T12:58:41.116Z,4.45
2022-10-22T13:01:13.927Z,4.38
2022-10-22T13:03:50.005Z,4.60
2022-10-22T13:06:28.524Z,4.03
2022-10-22T13:09:17.439Z,4.10
2022-10-22T13:11:53.832Z,4.03
2022-10-22T13:14:29.652Z,3.60
2022-10-22T13:17:15.039Z,3.50
2022-10-22T13:19:51.093Z,3.00
2022-10-22T13:22:32.894Z,2.95
2022-10-22T13:25:08.194Z,3.08
2022-10-22T13:27:46.055Z,3.35
2022-10-22T13:30:22.490Z,2.75
2022-10-22T13:32:54.109Z,2.22
2022-10-22T13:35:29.282Z,2.28
2022-10-22T13:37:59.000Z,2.33
2022-10-22T13:40:29.221Z,2.30
2022-10-22T13:42:58.916Z,2.00
2022-10-22T13:45:28.605Z,2.53
2022-10-22T13:47:58.363Z,2.15
2022-10-22T13:50:30.633Z,2.70
2022-10-22T13:53:01.527Z,2.42
2022-10-22T13:55:33.457Z,2.08
2022-10-22T13:58:07.439Z,2.33
2022-10-22T14:00:37.322Z,1.90
2022-10-22T14:03:07.958Z,1.88
2022-10-22T14:05:40.309Z,1.75
2022-10-22T14:08:14.511Z,2.20
2022-10-22T14:10:44.259Z,1.52
2022-10-22T14:13:14.858Z,2.30
2022-10-22T14:15:45.589Z,2.60
2022-10-22T14:18:24.292Z,2.00
2022-10-22T14:20:59.167Z,1.83
2022-10-22T14:23:31.021Z,2.28
2022-10-22T14:26:01.909Z,1.83
2022-10-22T14:28:40.992Z,2.00
2022-10-22T14:31:16.283Z,1.70
2022-10-22T14:33:46.704Z,1.55
2022-10-22T14:36:20.961Z,1.40
2022-10-22T14:38:51.690Z,1.17
2022-10-22T14:41:24.186Z,1.90
2022-10-22T14:43:55.952Z,1.90
2022-10-22T14:46:25.848Z,1.60
2022-10-22T14:48:55.601Z,1.70
2022-10-22T14:51:30.173Z,1.90
2022-10-22T14:53:59.890Z,1.42
2022-10-22T14:56:29.608Z,1.85
2022-10-22T14:58:59.357Z,1.27
2022-10-22T15:01:29.106Z,1.30
2022-10-22T15:03:58.877Z,1.45
2022-10-22T15:06:31.190Z,1.30
2022-10-22T15:09:00.940Z,1.20
2022-10-22T15:11:30.720Z,1.27
2022-10-22T15:14:00.418Z,1.63
2022-10-22T15:16:30.609Z,1.60
2022-10-22T15:19:01.097Z,1.40
2022-10-22T15:21:33.488Z,1.42
2022-10-22T15:24:04.828Z,1.10
2022-10-22T15:26:34.773Z,1.27
2022-10-22T15:29:05.850Z,1.33
2022-10-22T15:31:49.729Z,1.30
2022-10-22T15:34:23.733Z,1.30
2022-10-22T15:36:57.749Z,1.40
2022-10-22T15:39:27.996Z,1.20
2022-10-22T15:41:58.770Z,1.48
2022-10-22T15:44:31.424Z,2.40
2022-10-22T15:47:02.716Z,1.77
2022-10-22T15:49:32.505Z,2.10
2022-10-22T15:52:04.952Z,1.98
2022-10-22T15:54:35.005Z,2.33
2022-10-22T15:57:08.735Z,1.98
2022-10-22T15:59:39.117Z,2.25
2022-10-22T16:02:10.549Z,1.90
2022-10-22T16:04:40.936Z,2.30
2022-10-22T16:07:13.296Z,2.58
2022-10-22T16:09:43.056Z,2.17
2022-10-22T16:12:15.268Z,2.10
2022-10-22T16:14:46.995Z,1.90
2022-10-22T16:17:16.762Z,2.40
2022-10-22T16:19:46.901Z,2.15
2022-10-22T16:22:19.303Z,2.08
2022-10-22T16:24:49.129Z,2.10
2022-10-22T16:27:18.898Z,2.05
2022-10-22T16:29:49.106Z,1.80
2022-10-22T16:32:19.041Z,2.05
2022-10-22T16:34:48.856Z,1.70
2022-10-22T16:37:21.250Z,2.10
2022-10-22T16:39:51.103Z,1.52
2022-10-22T16:42:20.828Z,2.00
2022-10-22T16:44:50.584Z,1.58
2022-10-22T16:47:20.323Z,2.60
2022-10-22T16:49:50.071Z,1.85
2022-10-22T16:52:22.700Z,2.13
2022-10-22T16:54:52.514Z,1.63
2022-10-22T16:57:22.283Z,2.00
2022-10-22T16:59:52.029Z,2.17
2022-10-22T17:02:21.797Z,2.55
2022-10-22T17:04:51.584Z,2.03
2022-10-22T17:07:23.956Z,1.88
2022-10-22T17:09:56.663Z,3.25
2022-10-22T17:12:26.762Z,5.65
2022-10-22T17:14:56.491Z,2.55
2022-10-22T17:17:26.530Z,2.20
2022-10-22T17:19:56.338Z,2.60
2022-10-22T17:22:29.112Z,2.38
2022-10-22T17:25:11.614Z,2.42
2022-10-22T17:27:41.697Z,2.35
2022-10-22T17:30:15.394Z,2.92
2022-10-22T17:32:45.699Z,2.50
2022-10-22T17:35:18.375Z,2.63
2022-10-22T17:37:50.734Z,2.20
2022-10-22T17:40:21.734Z,2.60
2022-10-22T17:42:51.608Z,2.80
2022-10-22T17:45:21.343Z,2.78
2022-10-22T17:47:53.822Z,2.72
2022-10-22T17:50:23.633Z,2.47
2022-10-22T17:52:56.052Z,2.65
2022-10-22T17:55:25.839Z,2.65
2022-10-22T17:57:55.580Z,2.70
2022-10-22T18:00:25.388Z,2.60
2022-10-22T18:02:55.234Z,2.88
2022-10-22T18:05:27.751Z,2.60
2022-10-22T18:08:03.294Z,2.72
2022-10-22T18:10:41.749Z,2.60
2022-10-22T18:13:11.581Z,2.80
2022-10-22T18:15:41.437Z,2.47
2022-10-22T18:18:11.841Z,3.08
2022-10-22T18:20:41.538Z,3.17
2022-10-22T18:23:15.243Z,3.22
2022-10-22T18:25:45.001Z,2.30
2022-10-22T18:28:16.101Z,3.08
2022-10-22T18:30:46.525Z,2.92
2022-10-22T18:33:17.560Z,3.27
2022-10-22T18:35:49.222Z,3.88
2022-10-22T18:38:22.753Z,3.40
2022-10-22T18:40:53.366Z,3.17
2022-10-22T18:43:23.122Z,3.65
2022-10-22T18:45:52.999Z,3.30
2022-10-22T18:48:24.059Z,3.97
2022-10-22T18:51:02.071Z,3.92
2022-10-22T18:53:34.630Z,2.88
2022-10-22T18:56:04.525Z,2.92
2022-10-22T18:58:34.405Z,2.70
2022-10-22T19:01:10.064Z,2.50
2022-10-22T19:03:40.115Z,2.50
2022-10-22T19:06:10.388Z,2.97
2022-10-22T19:08:43.627Z,2.85
2022-10-22T19:11:16.710Z,3.00
2022-10-22T19:13:46.422Z,2.50
2022-10-22T19:16:23.631Z,2.95
2022-10-22T19:18:54.801Z,2.60
2022-10-22T19:21:24.720Z,2.90
2022-10-22T19:23:57.991Z,3.28
2022-10-22T19:26:29.185Z,3.42
2022-10-22T19:29:00.837Z,3.38
2022-10-22T19:31:32.558Z,2.80
2022-10-22T19:34:04.128Z,3.50
2022-10-22T19:36:36.074Z,3.10
2022-10-22T19:39:09.085Z,3.00
2022-10-22T19:41:39.557Z,3.25
2022-10-22T19:44:09.251Z,3.28
2022-10-22T19:46:39.497Z,2.72
2022-10-22T19:49:09.274Z,3.08
2022-10-22T19:51:40.311Z,2.90
2022-10-22T19:54:18.992Z,3.25
2022-10-22T19:56:49.823Z,3.50
2022-10-22T19:59:22.813Z,3.33
2022-10-22T20:01:52.857Z,2.90
2022-10-22T20:04:25.188Z,3.88
2022-10-22T20:06:54.961Z,3.05
2022-10-22T20:09:27.738Z,2.73
2022-10-22T20:11:57.553Z,2.97
2022-10-22T20:14:27.324Z,2.42
2022-10-22T20:16:57.334Z,2.80
2022-10-22T20:19:29.355Z,2.70
2022-10-22T20:24:31.498Z,2.72
2022-10-22T20:27:01.219Z,3.40
2022-10-22T20:29:30.904Z,2.63
2022-10-22T20:32:01.568Z,2.90
2022-10-22T20:34:33.001Z,2.60
2022-10-22T20:37:02.747Z,2.70
2022-10-22T20:39:35.113Z,2.78
2022-10-22T20:42:04.955Z,3.13
2022-10-22T20:44:34.681Z,3.03
2022-10-22T20:47:04.398Z,3.00
2022-10-22T20:49:34.765Z,2.75
2022-10-22T20:52:04.525Z,2.88
2022-10-22T20:54:41.461Z,2.95
2022-10-22T20:57:11.393Z,3.80
2022-10-22T20:59:41.112Z,3.27
2022-10-22T21:02:11.994Z,3.70
2022-10-22T21:04:44.103Z,3.00
2022-10-22T21:07:15.437Z,3.13
2022-10-22T21:09:47.760Z,3.50
2022-10-22T21:12:17.451Z,3.05
2022-10-22T21:14:47.184Z,3.57
2022-10-22T21:17:16.886Z,3.20
2022-10-22T21:19:46.572Z,2.90
2022-10-22T21:22:16.237Z,3.58
2022-10-22T21:24:48.526Z,3.00
2022-10-22T21:27:18.233Z,3.30
2022-10-22T21:29:47.929Z,3.30
2022-10-22T21:32:17.946Z,3.17
2022-10-22T21:34:47.645Z,3.53
2022-10-22T21:37:17.326Z,3.40
2022-10-22T21:39:50.061Z,3.13
2022-10-22T21:42:20.274Z,3.72
2022-10-22T21:44:50.191Z,3.50
2022-10-22T21:47:19.937Z,3.60
2022-10-22T21:49:49.766Z,2.67
2022-10-22T21:52:19.495Z,3.72
2022-10-22T21:54:51.845Z,3.30
2022-10-22T21:57:21.560Z,3.15
2022-10-22T21:59:51.297Z,3.45
2022-10-22T22:04:50.675Z,3.67
2022-10-22T22:07:20.426Z,3.60
2022-10-22T22:09:52.936Z,3.50
2022-10-22T22:12:23.021Z,3.38
2022-10-22T22:14:52.734Z,3.20
2022-10-22T22:17:22.419Z,3.70
2022-10-22T22:19:52.154Z,3.22
2022-10-22T22:22:21.986Z,3.45
2022-10-22T22:24:54.407Z,3.63
2022-10-22T22:27:24.122Z,3.65
2022-10-22T22:29:53.818Z,3.15
2022-10-22T22:32:23.557Z,4.07
2022-10-22T22:34:53.383Z,3.30
2022-10-22T22:37:23.154Z,3.78
2022-10-22T22:39:56.074Z,3.65
2022-10-22T22:42:25.825Z,4.13
2022-10-22T22:44:55.594Z,3.83
2022-10-22T22:47:25.325Z,3.83
2022-10-22T22:49:55.057Z,3.90
2022-10-22T22:52:24.956Z,4.25
2022-10-22T22:54:57.352Z,3.67
2022-10-22T22:57:27.057Z,3.88
2022-10-22T22:59:56.752Z,4.17
2022-10-22T23:02:26.520Z,3.47
2022-10-22T23:04:56.247Z,3.92
2022-10-22T23:07:26.223Z,4.18
2022-10-22T23:09:58.644Z,4.25
2022-10-22T23:12:29.046Z,4.07
2022-10-22T23:15:02.173Z,3.53
2022-10-22T23:17:31.942Z,3.47
2022-10-22T23:20:01.684Z,4.85
2022-10-22T23:22:31.445Z,4.00
2022-10-22T23:25:03.919Z,3.93
2022-10-22T23:27:33.624Z,3.90
2022-10-22T23:30:03.337Z,3.95
2022-10-22T23:32:33.070Z,3.90
2022-10-22T23:35:02.756Z,4.15
2022-10-22T23:37:32.459Z,4.28
2022-10-22T23:40:04.774Z,4.18
2022-10-22T23:42:34.543Z,3.90
2022-10-22T23:45:04.301Z,4.22
2022-10-22T23:47:33.964Z,4.03
2022-10-22T23:50:03.669Z,4.47
2022-10-22T23:52:33.381Z,3.92
2022-10-22T23:55:05.694Z,4.17
2022-10-22T23:57:35.406Z,4.45
